Time,TemperatureF,DewpointF,PressureIn,WindDirection,WindDirectionDegrees,WindSpeedMPH,WindSpeedGustMPH,Humidity,HourlyPrecipIn,Conditions,Clouds,dailyrainin,SoftwareType,DateUTC
2013-12-17 00:01:00,14.6,6.6,30.21,WSW,245,0.0,-999.0,70,0.00,,,0.00,Wunderground v.1.15,2013-12-17 05:01:00,
2013-12-17 00:02:00,14.6,6.6,30.21,WSW,245,0.0,-999.0,70,0.00,,,0.00,Wunderground v.1.15,2013-12-17 05:02:00,
2013-12-17 00:03:00,14.6,6.6,30.21,WSW,245,0.0,-999.0,70,0.00,,,0.00,Wunderground v.1.15,2013-12-17 05:03:00,
2013-12-17 00:04:00,14.4,6.4,30.21,WSW,245,0.0,-999.0,70,0.00,,,0.00,Wunderground v.1.15,2013-12-17 05:04:00,
2013-12-17 00:05:00,14.4,6.4,30.21,WSW,245,0.0,-999.0,70,0.00,,,0.00,Wunderground v.1.15,2013-12-17 05:05:00,
2013-12-17 00:08:00,14.4,6.7,30.21,WSW,245,0.0,-999.0,71,0.00,,,0.00,Wunderground v.1.15,2013-12-17 05:08:00,
2013-12-17 00:13:00,14.3,6.9,30.21,WSW,245,0.0,-999.0,72,0.00,,,0.00,Wunderground v.1.15,2013-12-17 05:13:00,
2013-12-17 00:19:00,14.1,6.7,30.21,WSW,245,0.0,-999.0,72,0.00,,,0.00,Wunderground v.1.15,2013-12-17 05:19:00,
2013-12-17 00:24:00,13.8,6.4,30.21,WSW,245,0.0,-999.0,72,0.00,,,0.00,Wunderground v.1.15,2013-12-17 05:24:00,
2013-12-17 00:30:00,13.8,6.7,30.21,WSW,245,0.0,-999.0,73,0.00,,,0.00,Wunderground v.1.15,2013-12-17 05:30:00,
2013-12-17 00:35:00,13.6,6.5,30.21,WSW,245,0.0,-999.0,73,0.00,,,0.00,Wunderground v.1.15,2013-12-17 05:35:00,
2013-12-17 00:41:00,13.3,6.6,30.21,WSW,245,0.0,-999.0,74,0.00,,,0.00,Wunderground v.1.15,2013-12-17 05:41:00,
2013-12-17 00:47:00,13.1,6.7,30.21,WSW,245,0.0,-999.0,75,0.00,,,0.00,Wunderground v.1.15,2013-12-17 05:47:00,
2013-12-17 00:52:00,13.1,6.7,30.21,WSW,245,0.0,-999.0,75,0.00,,,0.00,Wunderground v.1.15,2013-12-17 05:52:00,
2013-12-17 00:58:00,12.8,6.4,30.21,WSW,245,0.0,-999.0,75,0.00,,,0.00,Wunderground v.1.15,2013-12-17 05:58:00,
2013-12-17 01:04:00,12.1,6.0,30.21,WSW,245,0.0,-999.0,76,0.00,,,0.00,Wunderground v.1.15,2013-12-17 06:04:00,
2013-12-17 01:09:00,12.1,6.3,30.22,WSW,245,0.0,-999.0,77,0.00,,,0.00,Wunderground v.1.15,2013-12-17 06:09:00,
2013-12-17 01:15:00,12.3,6.5,30.22,WSW,245,0.0,-999.0,77,0.00,,,0.00,Wunderground v.1.15,2013-12-17 06:15:00,
2013-12-17 01:20:00,12.1,6.3,30.22,WSW,245,0.0,-999.0,77,0.00,,,0.00,Wunderground v.1.15,2013-12-17 06:20:00,
2013-12-17 01:26:00,12.1,6.3,30.23,WSW,245,0.0,-999.0,77,0.00,,,0.00,Wunderground v.1.15,2013-12-17 06:26:00,
2013-12-17 01:32:00,12.3,6.7,30.23,WSW,245,0.0,-999.0,78,0.00,,,0.00,Wunderground v.1.15,2013-12-17 06:32:00,
2013-12-17 01:37:00,12.3,6.7,30.23,WSW,245,0.0,-999.0,78,0.00,,,0.00,Wunderground v.1.15,2013-12-17 06:37:00,
2013-12-17 01:43:00,12.1,6.6,30.23,WSW,245,0.0,-999.0,78,0.00,,,0.00,Wunderground v.1.15,2013-12-17 06:43:00,
2013-12-17 01:48:00,12.1,6.6,30.23,WSW,245,0.0,-999.0,78,0.00,,,0.00,Wunderground v.1.15,2013-12-17 06:48:00,
2013-12-17 01:54:00,11.9,6.4,30.23,WSW,245,1.0,-999.0,78,0.00,,,0.00,Wunderground v.1.15,2013-12-17 06:54:00,
2013-12-17 01:59:00,11.7,6.2,30.23,WSW,245,1.0,-999.0,78,0.00,,,0.00,Wunderground v.1.15,2013-12-17 06:59:00,
2013-12-17 02:04:00,11.4,5.9,30.23,WSW,245,1.0,-999.0,78,0.00,,,0.00,Wunderground v.1.15,2013-12-17 07:04:00,
2013-12-17 02:09:00,11.1,5.9,30.24,WSW,245,1.0,-999.0,79,0.00,,,0.00,Wunderground v.1.15,2013-12-17 07:09:00,
2013-12-17 02:14:00,11.1,5.9,30.24,WSW,245,0.0,-999.0,79,0.00,,,0.00,Wunderground v.1.15,2013-12-17 07:14:00,
2013-12-17 02:19:00,10.7,5.5,30.24,WSW,245,1.0,-999.0,79,0.00,,,0.00,Wunderground v.1.15,2013-12-17 07:19:00,
2013-12-17 02:24:00,11.1,6.4,30.23,WSW,245,0.0,-999.0,81,0.00,,,0.00,Wunderground v.1.15,2013-12-17 07:24:00,
2013-12-17 02:29:00,12.1,7.1,30.23,WSW,245,0.0,-999.0,80,0.00,,,0.00,Wunderground v.1.15,2013-12-17 07:29:00,
2013-12-17 02:34:00,12.4,7.1,30.23,WSW,245,0.0,-999.0,79,0.00,,,0.00,Wunderground v.1.15,2013-12-17 07:34:00,
2013-12-17 02:39:00,12.3,6.7,30.23,WSW,245,0.0,-999.0,78,0.00,,,0.00,Wunderground v.1.15,2013-12-17 07:39:00,
2013-12-17 02:44:00,11.7,6.2,30.23,WSW,245,0.0,-999.0,78,0.00,,,0.00,Wunderground v.1.15,2013-12-17 07:44:00,
2013-12-17 02:49:00,11.6,6.1,30.23,WSW,245,0.0,-999.0,78,0.00,,,0.00,Wunderground v.1.15,2013-12-17 07:49:00,
2013-12-17 02:54:00,11.6,6.3,30.23,WSW,245,0.0,-999.0,79,0.00,,,0.00,Wunderground v.1.15,2013-12-17 07:54:00,
2013-12-17 02:59:00,11.2,5.4,30.23,WSW,245,0.0,-999.0,77,0.00,,,0.00,Wunderground v.1.15,2013-12-17 07:59:00,
2013-12-17 03:04:00,10.5,5.0,30.23,WSW,245,0.0,-999.0,78,0.00,,,0.00,Wunderground v.1.15,2013-12-17 08:04:00,
2013-12-17 03:09:00,9.5,3.7,30.23,WSW,245,0.0,-999.0,77,0.00,,,0.00,Wunderground v.1.15,2013-12-17 08:09:00,
2013-12-17 03:14:00,8.8,3.3,30.23,WSW,245,0.0,-999.0,78,0.00,,,0.00,Wunderground v.1.15,2013-12-17 08:14:00,
2013-12-17 03:19:00,8.6,3.4,30.23,WSW,245,0.0,-999.0,79,0.00,,,0.00,Wunderground v.1.15,2013-12-17 08:19:00,
2013-12-17 03:24:00,8.6,3.7,30.21,WSW,245,0.0,-999.0,80,0.00,,,0.00,Wunderground v.1.15,2013-12-17 08:24:00,
2013-12-17 03:30:00,8.6,3.7,30.21,WSW,245,0.0,-999.0,80,0.00,,,0.00,Wunderground v.1.15,2013-12-17 08:30:00,
2013-12-17 03:35:00,9.9,5.5,30.21,WSW,245,1.0,-999.0,82,0.00,,,0.00,Wunderground v.1.15,2013-12-17 08:35:00,
2013-12-17 03:40:00,10.9,5.9,30.21,WSW,245,0.0,-999.0,80,0.00,,,0.00,Wunderground v.1.15,2013-12-17 08:40:00,
2013-12-17 03:45:00,10.4,5.2,30.21,WSW,245,0.0,-999.0,79,0.00,,,0.00,Wunderground v.1.15,2013-12-17 08:45:00,
2013-12-17 03:50:00,10.0,4.8,30.21,WSW,245,0.0,-999.0,79,0.00,,,0.00,Wunderground v.1.15,2013-12-17 08:50:00,
2013-12-17 03:55:00,9.2,3.4,30.21,WSW,245,0.0,-999.0,77,0.00,,,0.00,Wunderground v.1.15,2013-12-17 08:55:00,
2013-12-17 04:00:00,8.4,2.9,30.21,WSW,245,0.0,-999.0,78,0.00,,,0.00,Wunderground v.1.15,2013-12-17 09:00:00,
2013-12-17 04:05:00,8.4,3.2,30.21,WSW,245,0.0,-999.0,79,0.00,,,0.00,Wunderground v.1.15,2013-12-17 09:05:00,
2013-12-17 04:10:00,8.3,3.1,30.21,WSW,245,0.0,-999.0,79,0.00,,,0.00,Wunderground v.1.15,2013-12-17 09:10:00,
2013-12-17 04:15:00,8.1,3.2,30.21,WSW,245,0.0,-999.0,80,0.00,,,0.00,Wunderground v.1.15,2013-12-17 09:15:00,
2013-12-17 04:20:00,8.1,3.2,30.21,WSW,245,0.0,-999.0,80,0.00,,,0.00,Wunderground v.1.15,2013-12-17 09:20:00,
2013-12-17 04:25:00,8.4,3.8,30.21,WSW,245,0.0,-999.0,81,0.00,,,0.00,Wunderground v.1.15,2013-12-17 09:25:00,
2013-12-17 04:30:00,8.6,4.0,30.21,WSW,245,0.0,-999.0,81,0.00,,,0.00,Wunderground v.1.15,2013-12-17 09:30:00,
2013-12-17 04:35:00,8.4,3.8,30.21,WSW,245,0.0,-999.0,81,0.00,,,0.00,Wunderground v.1.15,2013-12-17 09:35:00,
2013-12-17 04:40:00,8.3,3.7,30.21,WSW,245,0.0,-999.0,81,0.00,,,0.00,Wunderground v.1.15,2013-12-17 09:40:00,
2013-12-17 04:45:00,9.2,4.8,30.21,WSW,245,0.0,-999.0,82,0.00,,,0.00,Wunderground v.1.15,2013-12-17 09:45:00,
2013-12-17 04:50:00,9.7,5.0,30.21,WSW,245,1.0,-999.0,81,0.00,,,0.00,Wunderground v.1.15,2013-12-17 09:50:00,
2013-12-17 04:55:00,9.7,5.0,30.20,WSW,245,1.0,-999.0,81,0.00,,,0.00,Wunderground v.1.15,2013-12-17 09:55:00,
2013-12-17 05:00:00,9.9,5.0,30.20,WSW,245,0.0,-999.0,80,0.00,,,0.00,Wunderground v.1.15,2013-12-17 10:00:00,
2013-12-17 05:05:00,10.0,5.1,30.20,WSW,245,0.0,-999.0,80,0.00,,,0.00,Wunderground v.1.15,2013-12-17 10:05:00,
2013-12-17 05:10:00,10.7,6.0,30.20,WSW,245,2.0,-999.0,81,0.00,,,0.00,Wunderground v.1.15,2013-12-17 10:10:00,
2013-12-17 05:15:00,11.6,6.6,30.20,WSW,245,0.0,-999.0,80,0.00,,,0.00,Wunderground v.1.15,2013-12-17 10:15:00,
2013-12-17 05:20:00,12.3,7.0,30.20,WSW,245,1.0,-999.0,79,0.00,,,0.00,Wunderground v.1.15,2013-12-17 10:20:00,
2013-12-17 05:25:00,12.6,6.8,30.20,WSW,245,1.0,-999.0,77,0.00,,,0.00,Wunderground v.1.15,2013-12-17 10:25:00,
2013-12-17 05:30:00,12.9,6.8,30.20,WSW,245,1.0,-999.0,76,0.00,,,0.00,Wunderground v.1.15,2013-12-17 10:30:00,
2013-12-17 05:35:00,12.9,6.5,30.20,WSW,245,0.0,-999.0,75,0.00,,,0.00,Wunderground v.1.15,2013-12-17 10:35:00,
2013-12-17 05:40:00,12.9,6.2,30.20,WSW,245,1.0,-999.0,74,0.00,,,0.00,Wunderground v.1.15,2013-12-17 10:40:00,
2013-12-17 05:45:00,12.8,6.1,30.20,WSW,245,2.0,-999.0,74,0.00,,,0.00,Wunderground v.1.15,2013-12-17 10:45:00,
2013-12-17 05:50:00,12.9,6.2,30.20,WSW,245,2.0,-999.0,74,0.00,,,0.00,Wunderground v.1.15,2013-12-17 10:50:00,
2013-12-17 05:55:00,12.9,5.9,30.20,WSW,245,1.0,-999.0,73,0.00,,,0.00,Wunderground v.1.15,2013-12-17 10:55:00,
2013-12-17 06:00:00,12.9,5.9,30.20,WSW,245,2.0,-999.0,73,0.00,,,0.00,Wunderground v.1.15,2013-12-17 11:00:00,
2013-12-17 06:05:00,12.8,5.8,30.20,WSW,245,2.0,-999.0,73,0.00,,,0.00,Wunderground v.1.15,2013-12-17 11:05:00,
2013-12-17 06:10:00,12.6,5.9,30.19,WSW,245,3.0,-999.0,74,0.00,,,0.00,Wunderground v.1.15,2013-12-17 11:10:00,
2013-12-17 06:15:00,12.8,6.1,30.19,WSW,245,4.0,-999.0,74,0.00,,,0.00,Wunderground v.1.15,2013-12-17 11:15:00,
2013-12-17 06:20:00,12.9,6.2,30.19,WSW,245,5.0,-999.0,74,0.00,,,0.00,Wunderground v.1.15,2013-12-17 11:20:00,
2013-12-17 06:26:00,13.5,6.5,30.20,WSW,245,3.0,-999.0,73,0.00,,,0.00,Wunderground v.1.15,2013-12-17 11:26:00,
2013-12-17 06:31:00,14.0,6.9,30.20,WSW,245,1.0,-999.0,73,0.00,,,0.00,Wunderground v.1.15,2013-12-17 11:31:00,
2013-12-17 06:36:00,14.1,6.7,30.20,WSW,245,0.0,-999.0,72,0.00,,,0.00,Wunderground v.1.15,2013-12-17 11:36:00,
2013-12-17 06:41:00,14.1,6.7,30.22,WSW,245,0.0,-999.0,72,0.00,,,0.00,Wunderground v.1.15,2013-12-17 11:41:00,
2013-12-17 06:46:00,14.0,7.2,30.22,WSW,245,0.0,-999.0,74,0.00,,,0.00,Wunderground v.1.15,2013-12-17 11:46:00,
2013-12-17 06:51:00,14.0,7.2,30.22,WSW,245,0.0,-999.0,74,0.00,,,0.00,Wunderground v.1.15,2013-12-17 11:51:00,
2013-12-17 06:56:00,14.0,6.9,30.21,WSW,245,2.0,-999.0,73,0.00,,,0.00,Wunderground v.1.15,2013-12-17 11:56:00,
2013-12-17 07:01:00,14.3,6.9,30.21,WSW,245,2.0,-999.0,72,0.00,,,0.00,Wunderground v.1.15,2013-12-17 12:01:00,
2013-12-17 07:06:00,14.6,7.2,30.21,WSW,245,2.0,-999.0,72,0.00,,,0.00,Wunderground v.1.15,2013-12-17 12:06:00,
2013-12-17 07:11:00,14.6,7.2,30.20,WSW,245,2.0,-999.0,72,0.00,,,0.00,Wunderground v.1.15,2013-12-17 12:11:00,
2013-12-17 07:16:00,14.8,7.1,30.20,WSW,245,2.0,-999.0,71,0.00,,,0.00,Wunderground v.1.15,2013-12-17 12:16:00,
2013-12-17 07:21:00,14.8,7.1,30.20,WSW,245,1.0,-999.0,71,0.00,,,0.00,Wunderground v.1.15,2013-12-17 12:21:00,
2013-12-17 07:26:00,14.9,6.9,30.21,WSW,245,0.0,-999.0,70,0.00,,,0.00,Wunderground v.1.15,2013-12-17 12:26:00,
2013-12-17 07:31:00,14.9,7.5,30.21,WSW,245,0.0,-999.0,72,0.00,,,0.00,Wunderground v.1.15,2013-12-17 12:31:00,
2013-12-17 07:36:00,15.1,8.0,30.21,WSW,245,0.0,-999.0,73,0.00,,,0.00,Wunderground v.1.15,2013-12-17 12:36:00,
2013-12-17 07:41:00,15.1,7.7,30.23,WSW,245,0.0,-999.0,72,0.00,,,0.00,Wunderground v.1.15,2013-12-17 12:41:00,
2013-12-17 07:46:00,15.1,7.7,30.23,WSW,245,0.0,-999.0,72,0.00,,,0.00,Wunderground v.1.15,2013-12-17 12:46:00,
2013-12-17 07:51:00,15.2,7.5,30.23,WSW,245,0.0,-999.0,71,0.00,,,0.00,Wunderground v.1.15,2013-12-17 12:51:00,
2013-12-17 07:56:00,15.4,7.7,30.22,WSW,245,0.0,-999.0,71,0.00,,,0.00,Wunderground v.1.15,2013-12-17 12:56:00,
2013-12-17 08:01:00,15.6,7.9,30.22,WSW,245,0.0,-999.0,71,0.00,,,0.00,Wunderground v.1.15,2013-12-17 13:01:00,
2013-12-17 08:06:00,15.7,7.6,30.22,WSW,245,4.0,-999.0,70,0.00,,,0.00,Wunderground v.1.15,2013-12-17 13:06:00,
2013-12-17 08:11:00,15.7,7.6,30.21,WSW,245,5.0,-999.0,70,0.00,,,0.00,Wunderground v.1.15,2013-12-17 13:11:00,
2013-12-17 08:16:00,15.7,7.6,30.21,WSW,245,2.0,-999.0,70,0.00,,,0.00,Wunderground v.1.15,2013-12-17 13:16:00,
2013-12-17 08:21:00,15.7,8.0,30.21,WSW,245,3.0,-999.0,71,0.00,,,0.00,Wunderground v.1.15,2013-12-17 13:21:00,
2013-12-17 08:26:00,15.6,8.2,30.22,WSW,245,0.0,-999.0,72,0.00,,,0.00,Wunderground v.1.15,2013-12-17 13:26:00,
2013-12-17 08:32:00,15.6,8.8,30.22,WSW,245,2.0,-999.0,74,0.00,,,0.00,Wunderground v.1.15,2013-12-17 13:32:00,
2013-12-17 08:37:00,15.6,9.1,30.22,WSW,245,2.0,-999.0,75,0.00,,,0.00,Wunderground v.1.15,2013-12-17 13:37:00,
2013-12-17 08:42:00,15.6,9.4,30.21,WSW,245,2.0,-999.0,76,0.00,,,0.00,Wunderground v.1.15,2013-12-17 13:42:00,
2013-12-17 08:47:00,15.6,9.7,30.21,WSW,245,2.0,-999.0,77,0.00,,,0.00,Wunderground v.1.15,2013-12-17 13:47:00,
2013-12-17 08:52:00,15.6,9.7,30.21,WSW,245,3.0,-999.0,77,0.00,,,0.00,Wunderground v.1.15,2013-12-17 13:52:00,
2013-12-17 08:57:00,15.6,10.0,30.22,WSW,245,2.0,-999.0,78,0.00,,,0.00,Wunderground v.1.15,2013-12-17 13:57:00,
2013-12-17 09:02:00,15.6,10.2,30.22,WSW,245,2.0,-999.0,79,0.00,,,0.00,Wunderground v.1.15,2013-12-17 14:02:00,
2013-12-17 09:07:00,15.6,10.2,30.22,WSW,245,1.0,-999.0,79,0.00,,,0.00,Wunderground v.1.15,2013-12-17 14:07:00,
2013-12-17 09:12:00,15.6,10.5,30.21,WSW,245,3.0,-999.0,80,0.00,,,0.00,Wunderground v.1.15,2013-12-17 14:12:00,
2013-12-17 09:17:00,15.7,10.9,30.21,WSW,245,2.0,-999.0,81,0.00,,,0.00,Wunderground v.1.15,2013-12-17 14:17:00,
2013-12-17 09:22:00,15.7,11.2,30.21,WSW,245,0.0,-999.0,82,0.00,,,0.00,Wunderground v.1.15,2013-12-17 14:22:00,
2013-12-17 09:27:00,15.9,11.4,30.22,WSW,245,0.0,-999.0,82,0.00,,,0.00,Wunderground v.1.15,2013-12-17 14:27:00,
2013-12-17 09:32:00,16.1,11.6,30.22,WSW,245,0.0,-999.0,82,0.00,,,0.00,Wunderground v.1.15,2013-12-17 14:32:00,
2013-12-17 09:37:00,16.2,11.9,30.22,WSW,245,2.0,-999.0,83,0.00,,,0.00,Wunderground v.1.15,2013-12-17 14:37:00,
2013-12-17 09:42:00,16.2,12.2,30.20,WSW,245,2.0,-999.0,84,0.00,,,0.00,Wunderground v.1.15,2013-12-17 14:42:00,
2013-12-17 09:47:00,16.2,12.2,30.20,WSW,245,2.0,-999.0,84,0.00,,,0.00,Wunderground v.1.15,2013-12-17 14:47:00,
2013-12-17 09:52:00,16.2,12.5,30.20,WSW,245,4.0,-999.0,85,0.00,,,0.00,Wunderground v.1.15,2013-12-17 14:52:00,
2013-12-17 09:57:00,16.4,12.7,30.20,WSW,245,2.0,-999.0,85,0.00,,,0.00,Wunderground v.1.15,2013-12-17 14:57:00,
2013-12-17 10:02:00,16.5,12.8,30.20,WSW,245,3.0,-999.0,85,0.00,,,0.00,Wunderground v.1.15,2013-12-17 15:02:00,
2013-12-17 10:07:00,16.5,12.8,30.20,WSW,245,1.0,-999.0,85,0.00,,,0.00,Wunderground v.1.15,2013-12-17 15:07:00,
2013-12-17 10:12:00,16.7,13.0,30.18,WSW,245,2.0,-999.0,85,0.00,,,0.00,Wunderground v.1.15,2013-12-17 15:12:00,
2013-12-17 10:17:00,16.7,13.0,30.18,WSW,245,5.0,-999.0,85,0.00,,,0.00,Wunderground v.1.15,2013-12-17 15:17:00,
2013-12-17 10:22:00,16.7,13.0,30.18,WSW,245,2.0,-999.0,85,0.00,,,0.00,Wunderground v.1.15,2013-12-17 15:22:00,
2013-12-17 10:27:00,16.7,13.0,30.18,WSW,245,3.0,-999.0,85,0.00,,,0.00,Wunderground v.1.15,2013-12-17 15:27:00,
2013-12-17 10:32:00,16.7,13.0,30.18,WSW,245,5.0,-999.0,85,0.00,,,0.00,Wunderground v.1.15,2013-12-17 15:32:00,
2013-12-17 10:37:00,16.9,13.2,30.18,WSW,245,1.0,-999.0,85,0.00,,,0.00,Wunderground v.1.15,2013-12-17 15:37:00,
2013-12-17 10:42:00,16.9,13.2,30.16,WSW,245,2.0,-999.0,85,0.00,,,0.00,Wunderground v.1.15,2013-12-17 15:42:00,
2013-12-17 10:47:00,17.0,13.3,30.16,WSW,245,2.0,-999.0,85,0.00,,,0.00,Wunderground v.1.15,2013-12-17 15:47:00,
2013-12-17 10:52:00,17.2,13.5,30.16,WSW,245,2.0,-999.0,85,0.00,,,0.00,Wunderground v.1.15,2013-12-17 15:52:00,
2013-12-17 10:57:00,17.2,13.5,30.15,WSW,245,2.0,-999.0,85,0.00,,,0.00,Wunderground v.1.15,2013-12-17 15:57:00,
2013-12-17 11:02:00,17.2,13.5,30.15,WSW,245,1.0,-999.0,85,0.00,,,0.00,Wunderground v.1.15,2013-12-17 16:02:00,
2013-12-17 11:07:00,17.3,13.3,30.15,WSW,245,2.0,-999.0,84,0.00,,,0.00,Wunderground v.1.15,2013-12-17 16:07:00,
2013-12-17 11:12:00,17.3,13.3,30.15,WSW,245,5.0,-999.0,84,0.00,,,0.00,Wunderground v.1.15,2013-12-17 16:12:00,
2013-12-17 11:17:00,17.5,13.5,30.15,WSW,245,2.0,-999.0,84,0.00,,,0.00,Wunderground v.1.15,2013-12-17 16:17:00,
2013-12-17 11:22:00,17.5,13.8,30.15,WSW,245,2.0,-999.0,85,0.00,,,0.00,Wunderground v.1.15,2013-12-17 16:22:00,
2013-12-17 11:27:00,17.5,13.8,30.13,WSW,245,1.0,-999.0,85,0.00,,,0.00,Wunderground v.1.15,2013-12-17 16:27:00,
2013-12-17 11:32:00,17.7,14.0,30.13,WSW,245,2.0,-999.0,85,0.00,,,0.00,Wunderground v.1.15,2013-12-17 16:32:00,
2013-12-17 11:37:00,17.8,14.3,30.13,WSW,245,5.0,-999.0,86,0.00,,,0.00,Wunderground v.1.15,2013-12-17 16:37:00,
2013-12-17 11:42:00,18.0,14.5,30.11,WSW,245,3.0,-999.0,86,0.00,,,0.00,Wunderground v.1.15,2013-12-17 16:42:00,
2013-12-17 11:47:00,18.0,14.5,30.11,WSW,245,3.0,-999.0,86,0.00,,,0.00,Wunderground v.1.15,2013-12-17 16:47:00,
2013-12-17 11:52:00,18.1,14.6,30.11,WSW,245,2.0,-999.0,86,0.00,,,0.00,Wunderground v.1.15,2013-12-17 16:52:00,
2013-12-17 11:57:00,18.1,14.6,30.09,WSW,245,3.0,-999.0,86,0.00,,,0.00,Wunderground v.1.15,2013-12-17 16:57:00,
2013-12-17 12:02:00,18.1,14.6,30.09,WSW,245,7.0,-999.0,86,0.00,,,0.00,Wunderground v.1.15,2013-12-17 17:02:00,
2013-12-17 12:07:00,18.4,15.2,30.09,WSW,245,5.0,-999.0,87,0.00,,,0.00,Wunderground v.1.15,2013-12-17 17:07:00,
2013-12-17 12:12:00,18.8,15.6,30.09,WSW,245,3.0,-999.0,87,0.00,,,0.00,Wunderground v.1.15,2013-12-17 17:12:00,
2013-12-17 12:17:00,18.9,15.7,30.09,WSW,245,4.0,-999.0,87,0.00,,,0.00,Wunderground v.1.15,2013-12-17 17:17:00,
2013-12-17 12:22:00,18.9,15.4,30.08,WSW,245,3.0,-999.0,86,0.00,,,0.00,Wunderground v.1.15,2013-12-17 17:22:00,
2013-12-17 12:27:00,18.9,15.4,30.08,WSW,245,4.0,-999.0,86,0.00,,,0.00,Wunderground v.1.15,2013-12-17 17:27:00,
2013-12-17 12:32:00,18.9,15.4,30.08,WSW,245,0.0,-999.0,86,0.00,,,0.00,Wunderground v.1.15,2013-12-17 17:32:00,
2013-12-17 12:37:00,18.9,15.4,30.06,WSW,245,4.0,-999.0,86,0.00,,,0.00,Wunderground v.1.15,2013-12-17 17:37:00,
2013-12-17 12:42:00,19.1,15.6,30.06,WSW,245,3.0,-999.0,86,0.00,,,0.00,Wunderground v.1.15,2013-12-17 17:42:00,
2013-12-17 12:48:00,19.2,15.7,30.06,WSW,245,9.0,-999.0,86,0.00,,,0.00,Wunderground v.1.15,2013-12-17 17:48:00,
2013-12-17 12:53:00,19.4,15.6,30.05,WSW,245,6.0,-999.0,85,0.00,,,0.00,Wunderground v.1.15,2013-12-17 17:53:00,
2013-12-17 12:58:00,19.5,15.7,30.05,WSW,245,6.0,-999.0,85,0.00,,,0.00,Wunderground v.1.15,2013-12-17 17:58:00,
2013-12-17 13:03:00,19.7,15.9,30.05,WSW,245,4.0,-999.0,85,0.00,,,0.00,Wunderground v.1.15,2013-12-17 18:03:00,
2013-12-17 13:08:00,19.9,16.1,30.03,WSW,245,6.0,-999.0,85,0.00,,,0.00,Wunderground v.1.15,2013-12-17 18:08:00,
2013-12-17 13:13:00,19.9,16.1,30.03,WSW,245,4.0,-999.0,85,0.00,,,0.00,Wunderground v.1.15,2013-12-17 18:13:00,
2013-12-17 13:18:00,20.0,16.2,30.03,WSW,245,2.0,-999.0,85,0.00,,,0.00,Wunderground v.1.15,2013-12-17 18:18:00,
2013-12-17 13:23:00,20.0,16.2,30.03,WSW,245,4.0,-999.0,85,0.00,,,0.00,Wunderground v.1.15,2013-12-17 18:23:00,
2013-12-17 13:28:00,20.2,16.4,30.03,WSW,245,4.0,-999.0,85,0.00,,,0.00,Wunderground v.1.15,2013-12-17 18:28:00,
2013-12-17 13:33:00,20.2,16.4,30.03,WSW,245,9.0,-999.0,85,0.00,,,0.00,Wunderground v.1.15,2013-12-17 18:33:00,
2013-12-17 13:38:00,20.2,16.4,30.01,WSW,245,5.0,-999.0,85,0.00,,,0.00,Wunderground v.1.15,2013-12-17 18:38:00,
2013-12-17 13:43:00,20.2,16.7,30.01,WSW,245,5.0,-999.0,86,0.00,,,0.00,Wunderground v.1.15,2013-12-17 18:43:00,
2013-12-17 13:48:00,20.3,16.8,30.01,WSW,245,2.0,-999.0,86,0.00,,,0.00,Wunderground v.1.15,2013-12-17 18:48:00,
2013-12-17 13:53:00,20.3,16.8,30.01,WSW,245,4.0,-999.0,86,0.00,,,0.00,Wunderground v.1.15,2013-12-17 18:53:00,
2013-12-17 13:58:00,20.3,16.8,30.01,WSW,245,3.0,-999.0,86,0.00,,,0.00,Wunderground v.1.15,2013-12-17 18:58:00,
2013-12-17 14:03:00,20.3,16.8,30.01,WSW,245,4.0,-999.0,86,0.00,,,0.00,Wunderground v.1.15,2013-12-17 19:03:00,
2013-12-17 14:08:00,20.5,17.2,30.00,WSW,245,5.0,-999.0,87,0.00,,,0.00,Wunderground v.1.15,2013-12-17 19:08:00,
2013-12-17 14:13:00,20.5,17.2,30.00,WSW,245,4.0,-999.0,87,0.00,,,0.00,Wunderground v.1.15,2013-12-17 19:13:00,
2013-12-17 14:18:00,20.5,17.2,30.00,WSW,245,3.0,-999.0,87,0.00,,,0.00,Wunderground v.1.15,2013-12-17 19:18:00,
2013-12-17 14:23:00,20.5,17.2,30.00,WSW,245,2.0,-999.0,87,0.00,,,0.00,Wunderground v.1.15,2013-12-17 19:23:00,
2013-12-17 14:28:00,20.5,17.2,30.00,WSW,245,7.0,-999.0,87,0.00,,,0.00,Wunderground v.1.15,2013-12-17 19:28:00,
2013-12-17 14:33:00,20.5,17.2,30.00,WSW,245,6.0,-999.0,87,0.00,,,0.00,Wunderground v.1.15,2013-12-17 19:33:00,
2013-12-17 14:38:00,20.5,17.2,29.98,WSW,245,8.0,-999.0,87,0.00,,,0.00,Wunderground v.1.15,2013-12-17 19:38:00,
2013-12-17 14:43:00,20.5,17.2,29.98,WSW,245,5.0,-999.0,87,0.00,,,0.00,Wunderground v.1.15,2013-12-17 19:43:00,
2013-12-17 14:48:00,20.5,17.2,29.98,WSW,245,6.0,-999.0,87,0.00,,,0.00,Wunderground v.1.15,2013-12-17 19:48:00,
2013-12-17 14:53:00,20.5,17.2,29.98,WSW,245,4.0,-999.0,87,0.00,,,0.00,Wunderground v.1.15,2013-12-17 19:53:00,
2013-12-17 14:58:00,20.5,17.5,29.98,WSW,245,4.0,-999.0,88,0.00,,,0.00,Wunderground v.1.15,2013-12-17 19:58:00,
2013-12-17 15:03:00,20.5,17.5,29.98,WSW,245,5.0,-999.0,88,0.00,,,0.00,Wunderground v.1.15,2013-12-17 20:03:00,
2013-12-17 15:08:00,20.5,17.5,29.98,WSW,245,0.0,-999.0,88,0.00,,,0.00,Wunderground v.1.15,2013-12-17 20:08:00,
2013-12-17 15:13:00,20.5,17.5,29.98,WSW,245,3.0,-999.0,88,0.00,,,0.00,Wunderground v.1.15,2013-12-17 20:13:00,
2013-12-17 15:18:00,20.5,17.5,29.98,WSW,245,5.0,-999.0,88,0.00,,,0.00,Wunderground v.1.15,2013-12-17 20:18:00,
2013-12-17 15:23:00,20.5,17.5,29.97,WSW,245,4.0,-999.0,88,0.00,,,0.00,Wunderground v.1.15,2013-12-17 20:23:00,
2013-12-17 15:28:00,20.5,17.5,29.97,WSW,245,3.0,-999.0,88,0.00,,,0.00,Wunderground v.1.15,2013-12-17 20:28:00,
2013-12-17 15:33:00,20.5,17.5,29.97,WSW,245,6.0,-999.0,88,0.00,,,0.00,Wunderground v.1.15,2013-12-17 20:33:00,
2013-12-17 15:38:00,20.5,17.8,29.96,WSW,245,0.0,-999.0,89,0.00,,,0.00,Wunderground v.1.15,2013-12-17 20:38:00,
2013-12-17 15:43:00,20.5,17.8,29.96,WSW,245,3.0,-999.0,89,0.00,,,0.00,Wunderground v.1.15,2013-12-17 20:43:00,
2013-12-17 15:48:00,20.5,17.8,29.96,WSW,245,3.0,-999.0,89,0.00,,,0.00,Wunderground v.1.15,2013-12-17 20:48:00,
2013-12-17 15:53:00,20.5,17.8,29.95,WSW,245,6.0,-999.0,89,0.00,,,0.00,Wunderground v.1.15,2013-12-17 20:53:00,
2013-12-17 15:58:00,20.5,17.8,29.95,WSW,245,3.0,-999.0,89,0.00,,,0.00,Wunderground v.1.15,2013-12-17 20:58:00,
2013-12-17 16:04:00,20.5,17.8,29.95,WSW,245,0.0,-999.0,89,0.00,,,0.00,Wunderground v.1.15,2013-12-17 21:04:00,
2013-12-17 16:09:00,20.5,17.8,29.95,WSW,245,1.0,-999.0,89,0.00,,,0.00,Wunderground v.1.15,2013-12-17 21:09:00,
2013-12-17 16:14:00,20.5,17.8,29.95,WSW,245,5.0,-999.0,89,0.00,,,0.00,Wunderground v.1.15,2013-12-17 21:14:00,
2013-12-17 16:19:00,20.6,17.9,29.95,WSW,245,4.0,-999.0,89,0.00,,,0.00,Wunderground v.1.15,2013-12-17 21:19:00,
2013-12-17 16:24:00,20.6,17.9,29.95,WSW,245,0.0,-999.0,89,0.00,,,0.00,Wunderground v.1.15,2013-12-17 21:24:00,
2013-12-17 16:29:00,20.8,18.1,29.95,WSW,245,0.0,-999.0,89,0.00,,,0.00,Wunderground v.1.15,2013-12-17 21:29:00,
2013-12-17 16:34:00,21.0,18.3,29.95,WSW,245,3.0,-999.0,89,0.00,,,0.00,Wunderground v.1.15,2013-12-17 21:34:00,
2013-12-17 16:39:00,21.1,18.4,29.95,WSW,245,1.0,-999.0,89,0.00,,,0.00,Wunderground v.1.15,2013-12-17 21:39:00,
2013-12-17 16:44:00,21.1,18.4,29.95,WSW,245,0.0,-999.0,89,0.00,,,0.00,Wunderground v.1.15,2013-12-17 21:44:00,
2013-12-17 16:49:00,21.1,18.4,29.95,WSW,245,9.0,-999.0,89,0.00,,,0.00,Wunderground v.1.15,2013-12-17 21:49:00,
2013-12-17 16:54:00,21.0,18.3,29.95,WSW,245,0.0,-999.0,89,0.00,,,0.00,Wunderground v.1.15,2013-12-17 21:54:00,
2013-12-17 16:59:00,20.8,18.1,29.95,WSW,245,0.0,-999.0,89,0.00,,,0.00,Wunderground v.1.15,2013-12-17 21:59:00,
2013-12-17 17:04:00,20.6,17.9,29.95,WSW,245,4.0,-999.0,89,0.00,,,0.00,Wunderground v.1.15,2013-12-17 22:04:00,
2013-12-17 17:09:00,20.6,17.9,29.95,WSW,245,0.0,-999.0,89,0.00,,,0.00,Wunderground v.1.15,2013-12-17 22:09:00,
2013-12-17 17:14:00,20.5,17.8,29.95,WSW,245,4.0,-999.0,89,0.00,,,0.00,Wunderground v.1.15,2013-12-17 22:14:00,
2013-12-17 17:16:00,20.5,17.8,29.95,WSW,245,8.0,-999.0,89,0.00,,,0.00,Wunderground v.1.15,2013-12-17 22:16:00,
2013-12-17 17:21:00,20.3,17.6,29.95,WSW,245,1.0,-999.0,89,0.00,,,0.00,Wunderground v.1.15,2013-12-17 22:21:00,
2013-12-17 17:26:00,20.3,17.6,29.96,WSW,245,1.0,-999.0,89,0.00,,,0.00,Wunderground v.1.15,2013-12-17 22:26:00,
2013-12-17 17:31:00,20.3,17.6,29.96,WSW,245,0.0,-999.0,89,0.00,,,0.00,Wunderground v.1.15,2013-12-17 22:31:00,
2013-12-17 17:36:00,20.2,17.2,29.96,WSW,245,4.0,-999.0,88,0.00,,,0.00,Wunderground v.1.15,2013-12-17 22:36:00,
2013-12-17 17:41:00,20.2,17.2,29.95,WSW,245,3.0,-999.0,88,0.00,,,0.00,Wunderground v.1.15,2013-12-17 22:41:00,
2013-12-17 17:46:00,20.0,16.8,29.95,WSW,245,4.0,-999.0,87,0.00,,,0.00,Wunderground v.1.15,2013-12-17 22:46:00,
2013-12-17 17:51:00,19.9,16.7,29.95,WSW,245,5.0,-999.0,87,0.00,,,0.00,Wunderground v.1.15,2013-12-17 22:51:00,
2013-12-17 17:56:00,19.7,16.5,29.95,WSW,245,2.0,-999.0,87,0.00,,,0.00,Wunderground v.1.15,2013-12-17 22:56:00,
2013-12-17 18:01:00,19.7,16.2,29.95,WSW,245,2.0,-999.0,86,0.00,,,0.00,Wunderground v.1.15,2013-12-17 23:01:00,
2013-12-17 18:06:00,19.7,16.2,29.95,WSW,245,5.0,-999.0,86,0.00,,,0.00,Wunderground v.1.15,2013-12-17 23:06:00,
2013-12-17 18:11:00,19.5,16.0,29.95,WSW,245,3.0,-999.0,86,0.00,,,0.00,Wunderground v.1.15,2013-12-17 23:11:00,
2013-12-17 18:16:00,19.7,16.2,29.95,WSW,245,1.0,-999.0,86,0.00,,,0.00,Wunderground v.1.15,2013-12-17 23:16:00,
2013-12-17 18:21:00,19.7,16.2,29.95,WSW,245,5.0,-999.0,86,0.00,,,0.00,Wunderground v.1.15,2013-12-17 23:21:00,
2013-12-17 18:26:00,19.7,15.9,29.95,WSW,245,3.0,-999.0,85,0.00,,,0.00,Wunderground v.1.15,2013-12-17 23:26:00,
2013-12-17 18:31:00,19.7,15.9,29.95,WSW,245,2.0,-999.0,85,0.00,,,0.00,Wunderground v.1.15,2013-12-17 23:31:00,
2013-12-17 18:36:00,19.9,15.8,29.95,WSW,245,6.0,-999.0,84,0.00,,,0.00,Wunderground v.1.15,2013-12-17 23:36:00,
2013-12-17 18:41:00,19.9,15.8,29.96,WSW,245,2.0,-999.0,84,0.00,,,0.00,Wunderground v.1.15,2013-12-17 23:41:00,
2013-12-17 18:46:00,19.9,15.8,29.96,WSW,245,4.0,-999.0,84,0.00,,,0.00,Wunderground v.1.15,2013-12-17 23:46:00,
2013-12-17 18:51:00,19.9,15.8,29.96,WSW,245,0.0,-999.0,84,0.00,,,0.00,Wunderground v.1.15,2013-12-17 23:51:00,
2013-12-17 18:56:00,19.9,15.8,29.96,WSW,245,0.0,-999.0,84,0.00,,,0.00,Wunderground v.1.15,2013-12-17 23:56:00,
2013-12-17 19:01:00,19.9,15.8,29.96,WSW,245,0.0,-999.0,84,0.00,,,0.00,Wunderground v.1.15,2013-12-18 00:01:00,
2013-12-17 19:06:00,19.9,15.8,29.96,WSW,245,4.0,-999.0,84,0.00,,,0.00,Wunderground v.1.15,2013-12-18 00:06:00,
2013-12-17 19:11:00,19.9,15.8,29.96,WSW,245,1.0,-999.0,84,0.00,,,0.00,Wunderground v.1.15,2013-12-18 00:11:00,
2013-12-17 19:16:00,19.9,15.8,29.96,WSW,245,1.0,-999.0,84,0.00,,,0.00,Wunderground v.1.15,2013-12-18 00:16:00,
2013-12-17 19:21:00,19.9,15.8,29.96,WSW,245,7.0,-999.0,84,0.00,,,0.00,Wunderground v.1.15,2013-12-18 00:21:00,
2013-12-17 19:26:00,19.9,15.6,29.97,WSW,245,0.0,-999.0,83,0.00,,,0.00,Wunderground v.1.15,2013-12-18 00:26:00,
2013-12-17 19:31:00,19.9,15.6,29.97,WSW,245,1.0,-999.0,83,0.00,,,0.00,Wunderground v.1.15,2013-12-18 00:31:00,
2013-12-17 19:36:00,19.7,15.4,29.97,WSW,245,1.0,-999.0,83,0.00,,,0.00,Wunderground v.1.15,2013-12-18 00:36:00,
2013-12-17 19:41:00,19.5,15.2,29.96,WSW,245,3.0,-999.0,83,0.00,,,0.00,Wunderground v.1.15,2013-12-18 00:41:00,
2013-12-17 19:46:00,19.2,14.6,29.96,WSW,245,6.0,-999.0,82,0.00,,,0.00,Wunderground v.1.15,2013-12-18 00:46:00,
2013-12-17 19:51:00,18.8,14.2,29.96,WSW,245,3.0,-999.0,82,0.00,,,0.00,Wunderground v.1.15,2013-12-18 00:51:00,
2013-12-17 19:56:00,18.4,13.8,29.95,WSW,245,0.0,-999.0,82,0.00,,,0.00,Wunderground v.1.15,2013-12-18 00:56:00,
2013-12-17 20:01:00,18.3,13.7,29.95,WSW,245,0.0,-999.0,82,0.00,,,0.00,Wunderground v.1.15,2013-12-18 01:01:00,
2013-12-17 20:07:00,18.1,13.5,29.95,WSW,245,0.0,-999.0,82,0.00,,,0.00,Wunderground v.1.15,2013-12-18 01:07:00,
2013-12-17 20:12:00,18.0,13.4,29.95,WSW,245,0.0,-999.0,82,0.00,,,0.00,Wunderground v.1.15,2013-12-18 01:12:00,
2013-12-17 20:17:00,18.0,13.4,29.95,WSW,245,0.0,-999.0,82,0.00,,,0.00,Wunderground v.1.15,2013-12-18 01:17:00,
2013-12-17 20:22:00,17.8,13.2,29.95,WSW,245,0.0,-999.0,82,0.00,,,0.00,Wunderground v.1.15,2013-12-18 01:22:00,
2013-12-17 20:27:00,17.7,13.1,29.97,WSW,245,6.0,-999.0,82,0.00,,,0.00,Wunderground v.1.15,2013-12-18 01:27:00,
2013-12-17 20:32:00,17.5,12.9,29.97,WSW,245,4.0,-999.0,82,0.00,,,0.00,Wunderground v.1.15,2013-12-18 01:32:00,
2013-12-17 20:37:00,17.5,12.9,29.97,WSW,245,0.0,-999.0,82,0.00,,,0.00,Wunderground v.1.15,2013-12-18 01:37:00,
2013-12-17 20:42:00,17.5,12.7,29.97,WSW,245,0.0,-999.0,81,0.00,,,0.00,Wunderground v.1.15,2013-12-18 01:42:00,
2013-12-17 20:47:00,17.3,12.5,29.97,WSW,245,3.0,-999.0,81,0.00,,,0.00,Wunderground v.1.15,2013-12-18 01:47:00,
2013-12-17 20:52:00,17.3,12.5,29.97,WSW,245,0.0,-999.0,81,0.00,,,0.00,Wunderground v.1.15,2013-12-18 01:52:00,
2013-12-17 20:57:00,17.3,12.5,29.97,WSW,245,1.0,-999.0,81,0.00,,,0.00,Wunderground v.1.15,2013-12-18 01:57:00,
2013-12-17 21:02:00,17.2,12.4,29.97,WSW,245,0.0,-999.0,81,0.00,,,0.00,Wunderground v.1.15,2013-12-18 02:02:00,
2013-12-17 21:07:00,17.2,12.4,29.97,WSW,245,0.0,-999.0,81,0.00,,,0.00,Wunderground v.1.15,2013-12-18 02:07:00,
2013-12-17 21:12:00,17.2,12.4,29.95,WSW,245,0.0,-999.0,81,0.00,,,0.00,Wunderground v.1.15,2013-12-18 02:12:00,
2013-12-17 21:17:00,17.3,12.5,29.95,WSW,245,0.0,-999.0,81,0.00,,,0.00,Wunderground v.1.15,2013-12-18 02:17:00,
2013-12-17 21:22:00,17.3,12.7,29.95,WSW,245,2.0,-999.0,82,0.00,,,0.00,Wunderground v.1.15,2013-12-18 02:22:00,
2013-12-17 21:27:00,17.5,12.9,29.96,WSW,245,0.0,-999.0,82,0.00,,,0.00,Wunderground v.1.15,2013-12-18 02:27:00,
2013-12-17 21:32:00,17.5,12.7,29.96,WSW,245,0.0,-999.0,81,0.00,,,0.00,Wunderground v.1.15,2013-12-18 02:32:00,
2013-12-17 21:37:00,17.5,12.7,29.96,WSW,245,0.0,-999.0,81,0.00,,,0.00,Wunderground v.1.15,2013-12-18 02:37:00,
2013-12-17 21:42:00,17.5,12.7,29.95,WSW,245,1.0,-999.0,81,0.00,,,0.00,Wunderground v.1.15,2013-12-18 02:42:00,
2013-12-17 21:47:00,17.3,12.5,29.95,WSW,245,1.0,-999.0,81,0.00,,,0.00,Wunderground v.1.15,2013-12-18 02:47:00,
2013-12-17 21:52:00,17.3,12.5,29.95,WSW,245,0.0,-999.0,81,0.00,,,0.00,Wunderground v.1.15,2013-12-18 02:52:00,
2013-12-17 21:57:00,17.3,12.5,29.95,WSW,245,4.0,-999.0,81,0.00,,,0.00,Wunderground v.1.15,2013-12-18 02:57:00,
2013-12-17 22:02:00,17.3,12.5,29.95,WSW,245,0.0,-999.0,81,0.00,,,0.00,Wunderground v.1.15,2013-12-18 03:02:00,
2013-12-17 22:07:00,17.5,12.9,29.95,WSW,245,0.0,-999.0,82,0.00,,,0.00,Wunderground v.1.15,2013-12-18 03:07:00,
2013-12-17 22:12:00,17.7,13.1,29.95,WSW,245,0.0,-999.0,82,0.00,,,0.00,Wunderground v.1.15,2013-12-18 03:12:00,
2013-12-17 22:17:00,17.8,13.2,29.95,WSW,245,0.0,-999.0,82,0.00,,,0.00,Wunderground v.1.15,2013-12-18 03:17:00,
2013-12-17 22:22:00,17.8,13.2,29.95,WSW,245,2.0,-999.0,82,0.00,,,0.00,Wunderground v.1.15,2013-12-18 03:22:00,
2013-12-17 22:27:00,17.7,12.9,29.95,WSW,245,0.0,-999.0,81,0.00,,,0.00,Wunderground v.1.15,2013-12-18 03:27:00,
2013-12-17 22:32:00,17.5,12.7,29.95,WSW,245,1.0,-999.0,81,0.00,,,0.00,Wunderground v.1.15,2013-12-18 03:32:00,
2013-12-17 22:37:00,17.3,12.5,29.95,WSW,245,3.0,-999.0,81,0.00,,,0.00,Wunderground v.1.15,2013-12-18 03:37:00,
2013-12-17 22:42:00,17.3,12.5,29.95,WSW,245,1.0,-999.0,81,0.00,,,0.00,Wunderground v.1.15,2013-12-18 03:42:00,
2013-12-17 22:47:00,17.2,12.6,29.95,WSW,245,1.0,-999.0,82,0.00,,,0.00,Wunderground v.1.15,2013-12-18 03:47:00,
2013-12-17 22:52:00,17.2,12.6,29.94,WSW,245,0.0,-999.0,82,0.00,,,0.00,Wunderground v.1.15,2013-12-18 03:52:00,
2013-12-17 22:57:00,17.3,12.7,29.94,WSW,245,0.0,-999.0,82,0.00,,,0.00,Wunderground v.1.15,2013-12-18 03:57:00,
2013-12-17 23:02:00,17.3,12.7,29.94,WSW,245,0.0,-999.0,82,0.00,,,0.00,Wunderground v.1.15,2013-12-18 04:02:00,
2013-12-17 23:07:00,17.3,12.7,29.93,WSW,245,0.0,-999.0,82,0.00,,,0.00,Wunderground v.1.15,2013-12-18 04:07:00,
2013-12-17 23:12:00,17.3,12.7,29.93,WSW,245,0.0,-999.0,82,0.00,,,0.00,Wunderground v.1.15,2013-12-18 04:12:00,
2013-12-17 23:17:00,17.2,12.6,29.93,WSW,245,0.0,-999.0,82,0.00,,,0.00,Wunderground v.1.15,2013-12-18 04:17:00,
2013-12-17 23:22:00,17.2,12.6,29.93,WSW,245,0.0,-999.0,82,0.00,,,0.00,Wunderground v.1.15,2013-12-18 04:22:00,
2013-12-17 23:27:00,17.2,12.9,29.93,WSW,245,0.0,-999.0,83,0.00,,,0.00,Wunderground v.1.15,2013-12-18 04:27:00,
2013-12-17 23:32:00,17.0,12.7,29.93,WSW,245,0.0,-999.0,83,0.00,,,0.00,Wunderground v.1.15,2013-12-18 04:32:00,
2013-12-17 23:37:00,17.2,12.9,29.91,WSW,245,0.0,-999.0,83,0.00,,,0.00,Wunderground v.1.15,2013-12-18 04:37:00,
2013-12-17 23:42:00,17.2,12.9,29.91,WSW,245,0.0,-999.0,83,0.00,,,0.00,Wunderground v.1.15,2013-12-18 04:42:00,
2013-12-17 23:48:00,17.2,12.9,29.91,WSW,245,0.0,-999.0,83,0.00,,,0.00,Wunderground v.1.15,2013-12-18 04:48:00,
2013-12-17 23:53:00,17.2,12.9,29.90,WSW,245,0.0,-999.0,83,0.00,,,0.00,Wunderground v.1.15,2013-12-18 04:53:00,
2013-12-17 23:58:00,17.2,12.9,29.90,WSW,245,0.0,-999.0,83,0.00,,,0.00,Wunderground v.1.15,2013-12-18 04:58:00,